createdAt,value
2017-07-17T00:00:09.168Z,15.2
2017-07-17T00:15:04.596Z,15.2
2017-07-17T00:30:05.279Z,15.1
2017-07-17T00:45:04.225Z,15.1
2017-07-17T01:00:05.970Z,14.9
2017-07-17T01:15:52.442Z,14.9
2017-07-17T01:30:05.711Z,14.8
2017-07-17T01:45:03.858Z,14.8
2017-07-17T02:00:09.970Z,14.7
2017-07-17T02:15:02.919Z,14.6
2017-07-17T02:30:04.023Z,14.6
2017-07-17T02:45:02.943Z,14.5
2017-07-17T03:00:03.982Z,14.4
2017-07-17T03:15:05.322Z,14.3
2017-07-17T03:30:03.443Z,14.2
2017-07-17T03:45:04.552Z,14.2
2017-07-17T04:00:04.489Z,14.1
2017-07-17T04:15:04.510Z,14.1
2017-07-17T04:30:35.050Z,14
2017-07-17T04:45:04.604Z,13.9
2017-07-17T05:00:05.282Z,13.9
2017-07-17T05:15:04.152Z,13.9
2017-07-17T05:30:03.655Z,13.9
2017-07-17T05:45:04.384Z,13.8
2017-07-17T06:00:07.086Z,13.8
2017-07-17T06:15:05.669Z,13.8
2017-07-17T06:30:05.242Z,13.8
2017-07-17T06:45:04.418Z,13.8
2017-07-17T07:00:07.613Z,13.8
2017-07-17T07:15:06.993Z,13.8
2017-07-17T07:30:03.839Z,13.9
2017-07-17T07:45:14.344Z,13.9
2017-07-17T08:00:05.181Z,13.9
2017-07-17T08:15:04.081Z,13.9
2017-07-17T08:30:03.485Z,14
2017-07-17T08:46:07.412Z,14.1
2017-07-17T09:01:03.448Z,14.1
2017-07-17T09:15:07.133Z,14.2
2017-07-17T09:31:08.620Z,14.2
2017-07-17T09:45:06.639Z,14.3
2017-07-17T10:00:08.477Z,14.4
2017-07-17T10:15:03.741Z,14.4
2017-07-17T10:31:12.124Z,14.6
2017-07-17T10:45:05.274Z,14.6
2017-07-17T11:00:02.918Z,14.8
2017-07-17T11:15:02.528Z,14.8
2017-07-17T11:30:03.200Z,14.9
2017-07-17T11:45:02.736Z,15.1
2017-07-17T12:15:02.754Z,15.2
2017-07-17T12:30:03.407Z,15.4
2017-07-17T12:45:02.937Z,15.4
2017-07-17T13:00:02.559Z,15.6
2017-07-17T13:15:03.133Z,15.7
2017-07-17T13:30:02.768Z,15.8
2017-07-17T13:45:03.338Z,15.8
2017-07-17T14:00:06.737Z,15.8
2017-07-17T14:15:03.294Z,15.8
2017-07-17T14:30:02.949Z,15.8
2017-07-17T14:45:02.549Z,15.9
2017-07-17T15:00:03.243Z,15.9
2017-07-17T15:15:02.917Z,15.9
2017-07-17T15:30:02.581Z,16
2017-07-17T15:45:03.158Z,16.1
2017-07-17T16:00:02.718Z,16.1
2017-07-17T16:15:03.334Z,16.2
2017-07-17T16:30:02.940Z,16.2
2017-07-17T16:45:02.776Z,16.2
2017-07-17T17:00:03.329Z,16.2
2017-07-17T17:15:02.899Z,16.3
2017-07-17T17:30:02.587Z,16.3
2017-07-17T17:45:03.169Z,16.3
2017-07-17T18:00:02.790Z,16.3
2017-07-17T18:15:05.520Z,16.3
2017-07-17T18:30:03.836Z,16.4
2017-07-17T18:45:03.464Z,16.3
2017-07-17T19:00:03.067Z,16.3
2017-07-17T19:15:02.637Z,16.3
2017-07-17T19:30:03.322Z,16.3
2017-07-17T19:45:02.878Z,16.2
2017-07-17T20:00:03.581Z,16.2
2017-07-17T20:15:03.157Z,16.2
2017-07-17T20:30:02.798Z,16.2
2017-07-17T20:45:03.391Z,16.1
2017-07-17T21:00:02.990Z,16.1
2017-07-17T21:15:02.646Z,16.1
2017-07-17T21:30:03.326Z,16
2017-07-17T21:45:02.931Z,15.9
2017-07-17T22:00:06.049Z,15.9
2017-07-17T22:15:02.682Z,15.9
2017-07-17T22:30:03.378Z,15.8
2017-07-17T22:45:02.948Z,15.8
2017-07-17T23:00:02.576Z,15.6
2017-07-17T23:15:03.714Z,15.6
2017-07-17T23:30:03.601Z,15.6
2017-07-17T23:45:03.155Z,15.4
